createdAt,value
2022-08-28T00:02:48.205Z,61.30
2022-08-28T00:07:50.803Z,61.20
2022-08-28T00:12:55.827Z,61.10
2022-08-28T00:17:59.496Z,61.10
2022-08-28T00:23:02.138Z,61.10
2022-08-28T00:28:08.811Z,60.80
2022-08-28T00:33:15.732Z,60.80
2022-08-28T00:38:20.428Z,60.50
2022-08-28T00:43:44.595Z,60.30
2022-08-28T00:48:47.631Z,60.40
2022-08-28T00:53:50.521Z,60.40
2022-08-28T00:58:56.866Z,60.10
2022-08-28T01:03:59.196Z,59.90
2022-08-28T01:09:01.529Z,59.90
2022-08-28T01:14:05.468Z,58.60
2022-08-28T01:19:13.200Z,59.50
2022-08-28T01:24:18.063Z,59.90
2022-08-28T01:29:20.970Z,60.00
2022-08-28T01:34:23.628Z,60.00
2022-08-28T01:39:26.927Z,60.00
2022-08-28T01:44:29.272Z,59.80
2022-08-28T01:49:31.569Z,59.80
2022-08-28T01:54:33.815Z,59.80
2022-08-28T01:59:37.875Z,59.80
2022-08-28T02:04:40.610Z,59.80
2022-08-28T02:09:43.292Z,59.70
2022-08-28T02:14:45.546Z,59.80
2022-08-28T02:19:47.778Z,59.80
2022-08-28T02:24:50.055Z,60.00
2022-08-28T02:29:52.470Z,59.90
2022-08-28T02:34:55.424Z,59.90
2022-08-28T02:39:58.516Z,60.00
2022-08-28T02:45:01.035Z,59.50
2022-08-28T02:50:03.960Z,60.00
2022-08-28T02:55:07.443Z,60.30
2022-08-28T03:00:12.957Z,60.30
2022-08-28T03:05:17.699Z,60.20
2022-08-28T03:10:20.865Z,60.30
2022-08-28T03:15:23.305Z,60.20
2022-08-28T03:20:25.735Z,60.50
2022-08-28T03:25:29.150Z,60.60
2022-08-28T03:30:31.448Z,60.50
2022-08-28T03:35:34.251Z,60.70
2022-08-28T03:40:39.754Z,60.80
2022-08-28T03:45:51.132Z,60.90
2022-08-28T03:50:54.144Z,61.00
2022-08-28T03:55:58.141Z,61.00
2022-08-28T04:01:00.489Z,61.30
2022-08-28T04:06:03.117Z,61.30
2022-08-28T04:11:05.890Z,61.00
2022-08-28T04:16:11.973Z,61.20
2022-08-28T04:21:19.847Z,61.40
2022-08-28T04:26:25.165Z,61.50
2022-08-28T04:31:32.236Z,61.60
2022-08-28T04:36:35.841Z,61.80
2022-08-28T04:41:38.871Z,61.70
2022-08-28T04:46:41.243Z,61.90
2022-08-28T04:51:43.514Z,61.60
2022-08-28T04:56:49.200Z,61.70
2022-08-28T05:01:52.051Z,62.00
2022-08-28T05:06:54.628Z,62.00
2022-08-28T05:11:56.931Z,62.00
2022-08-28T05:16:59.403Z,62.10
2022-08-28T05:22:01.668Z,61.90
2022-08-28T05:27:04.281Z,62.60
2022-08-28T05:32:07.444Z,62.20
2022-08-28T05:37:09.784Z,61.70
2022-08-28T05:42:12.047Z,62.10
2022-08-28T05:47:15.320Z,61.80
2022-08-28T05:52:17.563Z,62.80
2022-08-28T05:57:19.872Z,62.20
2022-08-28T06:02:22.131Z,62.40
2022-08-28T06:07:24.944Z,62.20
2022-08-28T06:12:27.264Z,62.40
2022-08-28T06:17:29.600Z,62.50
2022-08-28T06:22:31.843Z,61.80
2022-08-28T06:27:36.804Z,61.30
2022-08-28T06:32:39.085Z,63.50
2022-08-28T06:37:41.337Z,61.10
2022-08-28T06:42:43.631Z,63.70
2022-08-28T06:47:48.023Z,62.80
2022-08-28T06:52:53.024Z,62.60
2022-08-28T06:57:55.252Z,61.50
2022-08-28T07:02:58.340Z,59.30
2022-08-28T07:08:01.072Z,57.70
2022-08-28T07:13:05.487Z,53.70
2022-08-28T07:18:07.715Z,51.30
2022-08-28T07:23:09.971Z,49.40
2022-08-28T07:28:12.330Z,48.90
2022-08-28T07:33:14.614Z,48.40
2022-08-28T07:38:17.331Z,49.80
2022-08-28T07:43:39.755Z,47.70
2022-08-28T07:48:42.581Z,48.30
2022-08-28T07:53:46.148Z,48.70
2022-08-28T08:12:58.714Z,51.30
2022-08-28T08:18:01.447Z,52.90
2022-08-28T08:23:03.729Z,53.60
2022-08-28T08:28:07.524Z,54.40
2022-08-28T08:33:11.507Z,54.80
2022-08-28T08:38:13.910Z,56.40
2022-08-28T08:43:18.658Z,57.00
2022-08-28T08:48:29.043Z,57.40
2022-08-28T08:58:44.703Z,57.90
2022-08-28T09:09:02.363Z,57.00
2022-08-28T09:14:21.666Z,57.90
2022-08-28T09:19:30.194Z,57.40
2022-08-28T09:24:36.674Z,56.60
2022-08-28T09:29:43.408Z,55.20
2022-08-28T09:45:30.323Z,52.90
2022-08-28T10:06:26.811Z,53.70
2022-08-28T10:22:25.521Z,59.00
2022-08-28T10:27:57.481Z,59.60
2022-08-28T10:38:21.603Z,60.10
2022-08-28T10:43:33.844Z,62.30
2022-08-28T10:48:46.377Z,63.30
2022-08-28T10:53:56.018Z,63.80
2022-08-28T10:58:59.490Z,63.60
2022-08-28T11:04:08.199Z,63.00
2022-08-28T11:09:24.877Z,61.70
2022-08-28T11:56:36.400Z,66.40
2022-08-28T12:01:39.804Z,69.60
2022-08-28T12:11:58.647Z,69.10
2022-08-28T12:22:16.863Z,69.20
2022-08-28T12:27:19.522Z,68.90
2022-08-28T12:32:46.387Z,69.50
2022-08-28T12:43:09.010Z,69.20
2022-08-28T12:53:22.783Z,68.60
2022-08-28T12:58:34.290Z,68.70
2022-08-28T13:03:58.232Z,69.50
2022-08-28T13:09:05.282Z,69.50
2022-08-28T13:14:08.631Z,70.10
2022-08-28T13:19:29.653Z,71.30
2022-08-28T13:30:04.712Z,73.90
2022-08-28T13:40:53.389Z,75.50
2022-08-28T13:45:45.955Z,74.20
2022-08-28T13:50:51.732Z,73.90
2022-08-28T13:55:54.055Z,74.00
2022-08-28T14:00:56.510Z,74.40
2022-08-28T14:05:58.848Z,74.30
2022-08-28T14:11:01.361Z,74.00
2022-08-28T14:16:07.320Z,74.20
2022-08-28T14:21:10.635Z,74.10
2022-08-28T14:26:12.870Z,74.70
2022-08-28T14:31:15.141Z,74.40
2022-08-28T14:36:21.187Z,74.70
2022-08-28T14:41:25.072Z,74.50
2022-08-28T14:46:33.380Z,74.70
2022-08-28T14:51:37.635Z,75.20
2022-08-28T14:56:43.020Z,75.70
2022-08-28T15:01:46.475Z,75.60
2022-08-28T15:06:50.910Z,75.60
2022-08-28T15:11:53.864Z,75.90
2022-08-28T15:16:56.169Z,75.80
2022-08-28T15:21:58.891Z,76.30
2022-08-28T15:27:02.167Z,76.10
2022-08-28T15:32:04.777Z,75.80
2022-08-28T15:37:07.992Z,76.20
2022-08-28T15:42:11.480Z,76.00
2022-08-28T15:47:15.330Z,76.00
2022-08-28T15:52:19.219Z,76.50
2022-08-28T15:57:21.493Z,77.00
2022-08-28T16:02:25.127Z,78.20
2022-08-28T16:07:27.480Z,78.50
2022-08-28T16:12:29.773Z,78.60
2022-08-28T16:17:32.031Z,79.70
2022-08-28T16:22:35.231Z,80.10
2022-08-28T16:27:37.503Z,79.40
2022-08-28T16:32:39.766Z,80.50
2022-08-28T16:37:42.746Z,81.50
2022-08-28T16:42:47.588Z,82.20
2022-08-28T16:47:54.729Z,82.00
2022-08-28T16:52:57.933Z,82.10
2022-08-28T16:58:00.618Z,82.50
2022-08-28T17:03:02.955Z,83.60
2022-08-28T17:08:05.420Z,82.60
2022-08-28T17:13:08.133Z,82.40
2022-08-28T17:18:10.437Z,82.90
2022-08-28T17:23:12.812Z,81.40
2022-08-28T17:28:15.403Z,81.50
2022-08-28T17:33:17.832Z,81.80
2022-08-28T17:38:20.052Z,81.90
2022-08-28T17:43:22.490Z,81.70
2022-08-28T17:48:24.961Z,81.60
2022-08-28T17:53:27.905Z,80.90
2022-08-28T17:58:33.420Z,80.90
2022-08-28T18:03:45.672Z,79.70
2022-08-28T18:08:55.637Z,80.50
2022-08-28T18:13:59.769Z,80.70
2022-08-28T18:19:04.824Z,79.90
2022-08-28T18:24:08.411Z,80.20
2022-08-28T18:29:11.798Z,79.30
2022-08-28T18:34:14.253Z,78.60
2022-08-28T18:39:16.752Z,78.30
2022-08-28T18:44:32.607Z,78.40
2022-08-28T18:49:35.066Z,78.00
2022-08-28T18:54:37.577Z,77.60
2022-08-28T18:59:40.046Z,77.40
2022-08-28T19:04:44.559Z,77.10
2022-08-28T19:09:46.811Z,77.00
2022-08-28T19:14:54.003Z,76.50
2022-08-28T19:19:57.500Z,76.60
2022-08-28T19:25:03.099Z,76.50
2022-08-28T19:30:07.836Z,76.10
2022-08-28T19:35:10.552Z,76.20
2022-08-28T19:40:13.927Z,76.40
2022-08-28T19:45:16.911Z,76.00
2022-08-28T19:50:20.200Z,75.80
2022-08-28T19:55:25.936Z,75.60
2022-08-28T20:00:29.626Z,75.40
2022-08-28T20:05:31.972Z,75.20
2022-08-28T20:10:34.304Z,75.30
2022-08-28T20:15:37.385Z,75.00
2022-08-28T20:20:40.070Z,74.80
2022-08-28T20:25:51.270Z,74.60
2022-08-28T20:30:53.679Z,74.50
2022-08-28T20:36:01.067Z,74.10
2022-08-28T20:46:17.023Z,73.90
2022-08-28T20:51:39.374Z,73.70
2022-08-28T20:56:42.067Z,73.30
2022-08-28T21:01:44.591Z,72.90
2022-08-28T21:06:46.948Z,72.40
2022-08-28T21:11:49.736Z,71.70
2022-08-28T21:16:52.081Z,71.50
2022-08-28T21:21:54.470Z,71.50
2022-08-28T21:26:57.865Z,71.00
2022-08-28T21:32:00.897Z,70.60
2022-08-28T21:37:03.574Z,69.90
2022-08-28T21:42:06.271Z,70.00
2022-08-28T21:47:08.532Z,70.00
2022-08-28T21:52:10.759Z,69.50
2022-08-28T21:57:13.076Z,69.30
2022-08-28T22:02:15.381Z,69.40
2022-08-28T22:07:18.985Z,69.10
2022-08-28T22:12:21.399Z,68.90
2022-08-28T22:17:23.630Z,68.90
2022-08-28T22:22:45.773Z,68.70
2022-08-28T22:27:48.046Z,68.10
2022-08-28T22:32:50.347Z,67.60
2022-08-28T22:37:52.619Z,66.00
2022-08-28T22:42:55.528Z,66.80
2022-08-28T22:47:57.850Z,66.10
2022-08-28T22:53:00.271Z,66.30
2022-08-28T22:58:03.251Z,66.00
2022-08-28T23:03:05.556Z,65.90
2022-08-28T23:08:07.894Z,65.60
2022-08-28T23:13:10.230Z,65.50
2022-08-28T23:18:17.394Z,65.20
2022-08-28T23:23:20.710Z,65.10
2022-08-28T23:28:22.994Z,65.00
2022-08-28T23:33:25.271Z,64.60
2022-08-28T23:38:27.595Z,64.20
2022-08-28T23:43:29.980Z,64.00
2022-08-28T23:48:32.430Z,63.40
2022-08-28T23:53:35.530Z,62.80
2022-08-28T23:58:37.785Z,63.40
